Time;durP1;ratioP1;P1;durP2;ratioP2;P2;SDS_P1;SDS_P2;PMS_P1;PMS_P2;Temp;Humidity;BMP_temperature;BMP_pressure;BME280_temperature;BME280_humidity;BME280_pressure;Samples;Min_cycle;Max_cycle;Signal;HPM_P1;HPM_P2
2022/12/14 00:00:17;;;;;;;23.58;14.60;;;;;;;;;;5092610;28;20046;-66
2022/12/14 00:02:43;;;;;;;30.75;16.85;;;;;;;;;;5093765;28;20116;-66
2022/12/14 00:05:09;;;;;;;25.50;16.17;;;9.10;91.40;;;;;;5093759;28;20439;-67
2022/12/14 00:07:34;;;;;;;25.25;16.13;;;9.00;91.40;;;;;;5071602;28;20044;-67
2022/12/14 00:10:00;;;;;;;27.10;16.33;;;9.10;91.40;;;;;;5093541;28;20066;-67
2022/12/14 00:12:26;;;;;;;27.85;16.23;;;;;;;;;;5093686;28;20393;-67
2022/12/14 00:14:52;;;;;;;25.55;15.98;;;;;;;;;;5093344;28;20043;-67
2022/12/14 00:17:18;;;;;;;26.45;16.15;;;8.60;91.20;;;;;;5090787;28;20089;-68
2022/12/14 00:19:44;;;;;;;25.70;15.88;;;8.90;91.50;;;;;;5093195;28;20043;-65
2022/12/14 00:22:10;;;;;;;27.60;16.48;;;8.70;91.30;;;;;;5093505;28;20119;-66
2022/12/14 00:24:36;;;;;;;25.08;15.63;;;8.60;91.30;;;;;;5059279;28;20490;-66
2022/12/14 00:27:01;;;;;;;27.55;16.35;;;8.50;90.20;;;;;;5053322;28;20036;-67
2022/12/14 00:29:27;;;;;;;27.30;17.23;;;8.70;91.30;;;;;;5081598;28;20048;-67
2022/12/14 00:31:53;;;;;;;27.08;15.88;;;8.80;91.30;;;;;;5092407;28;20036;-67
2022/12/14 00:34:19;;;;;;;25.25;15.77;;;9.00;91.40;;;;;;5093191;28;20426;-67
2022/12/14 00:36:44;;;;;;;23.48;15.50;;;8.70;91.50;;;;;;5093448;28;20128;-67
2022/12/14 00:39:10;;;;;;;23.75;14.35;;;8.70;91.30;;;;;;5090756;28;20040;-67
2022/12/14 00:41:36;;;;;;;30.30;16.95;;;8.90;91.40;;;;;;5083298;28;20521;-68
2022/12/14 00:44:02;;;;;;;22.95;14.93;;;8.80;91.30;;;;;;5092071;28;20036;-68
2022/12/14 00:46:27;;;;;;;24.90;15.63;;;8.70;91.30;;;;;;5093297;28;20040;-66
2022/12/14 00:48:53;;;;;;;24.67;15.52;;;;;;;;;;5088254;28;20068;-68
2022/12/14 00:51:20;;;;;;;25.67;15.70;;;;;;;;;;5092855;28;20052;-64
2022/12/14 00:53:45;;;;;;;27.25;16.45;;;8.80;91.30;;;;;;5092917;28;20554;-67
2022/12/14 00:56:11;;;;;;;26.20;16.10;;;8.80;91.30;;;;;;5093809;28;20161;-67
2022/12/14 00:58:37;;;;;;;29.92;16.38;;;;;;;;;;5066692;28;20058;-67
2022/12/14 01:01:05;;;;;;;26.85;16.23;;;;;;;;;;5093063;28;20040;-65
2022/12/14 01:03:30;;;;;;;26.60;16.35;;;8.50;91.20;;;;;;5093034;28;20043;-67
2022/12/14 01:05:57;;;;;;;25.10;14.95;;;;;;;;;;5091876;28;20397;-66
2022/12/14 01:08:22;;;;;;;24.20;15.20;;;8.80;91.10;;;;;;5093480;28;20118;-66
2022/12/14 01:10:48;;;;;;;25.40;15.90;;;;;;;;;;5093897;28;20071;-66
2022/12/14 01:13:15;;;;;;;26.90;16.00;;;;;;;;;;5096804;28;20126;-63
2022/12/14 01:15:40;;;;;;;28.58;15.13;;;8.60;91.30;;;;;;5061604;28;20088;-65
2022/12/14 01:18:06;;;;;;;25.30;15.50;;;;;;;;;;5056050;28;20506;-58
2022/12/14 01:20:32;;;;;;;27.95;15.60;;;8.60;91.30;;;;;;5081749;28;20082;-60
2022/12/14 01:22:58;;;;;;;28.42;16.65;;;8.60;90.40;;;;;;5095243;28;20072;-61
2022/12/14 01:25:24;;;;;;;27.02;15.27;;;8.50;91.30;;;;;;5097098;28;20044;-61
2022/12/14 01:27:49;;;;;;;25.92;15.85;;;8.70;91.40;;;;;;5096220;28;20101;-64
2022/12/14 01:30:18;;;;;;;25.92;16.67;;;;;;;;;;5093886;28;20040;-64
2022/12/14 01:32:44;;;;;;;31.20;16.70;;;8.50;91.30;;;;;;5059429;28;20210;-63
2022/12/14 01:35:09;;;;;;;27.08;16.10;;;8.00;91.20;;;;;;5056739;28;20390;-60
2022/12/14 01:37:35;;;;;;;27.00;16.50;;;8.70;91.50;;;;;;5096053;28;20048;-64
2022/12/14 01:40:02;;;;;;;28.38;15.50;;;8.50;91.30;;;;;;5093712;28;20123;-61
2022/12/14 01:42:27;;;;;;;24.95;15.18;;;8.40;91.40;;;;;;5096248;28;20165;-61
2022/12/14 01:44:55;;;;;;;26.23;15.32;;;8.40;90.10;;;;;;5095939;28;20040;-61
2022/12/14 01:47:39;;;;;;;26.30;16.05;;;8.30;89.20;;;;;;5095812;28;20040;-59
2022/12/14 01:50:22;;;;;;;29.88;16.88;;;8.40;89.10;;;;;;5055670;28;20057;-62
2022/12/14 01:52:48;;;;;;;27.43;16.50;;;8.30;91.30;;;;;;5055813;28;20120;-59
2022/12/14 01:55:16;;;;;;;28.05;15.60;;;8.50;90.20;;;;;;5051696;28;20301;-64
2022/12/14 01:57:46;;;;;;;26.40;16.20;;;8.30;90.00;;;;;;5094428;28;20497;-63
2022/12/14 02:00:12;;;;;;;24.42;14.80;;;8.70;91.40;;;;;;5077555;28;20560;-67
2022/12/14 02:02:47;;;;;;;29.00;15.98;;;8.20;89.70;;;;;;5092806;28;20044;-66
2022/12/14 02:05:13;;;;;;;25.50;16.13;;;;;;;;;;5085143;28;20397;-66
2022/12/14 02:07:39;;;;;;;28.10;16.33;;;;;;;;;;5055513;28;20095;-61
2022/12/14 02:10:05;;;;;;;28.17;17.10;;;8.80;91.60;;;;;;5055195;28;20041;-64
2022/12/14 02:12:38;;;;;;;25.70;15.55;;;8.40;91.30;;;;;;5086710;28;20037;-64
2022/12/14 02:15:04;;;;;;;29.00;16.95;;;8.40;91.30;;;;;;5077730;28;20064;-67
2022/12/14 02:17:30;;;;;;;26.65;15.45;;;8.20;91.30;;;;;;5095545;28;20508;-64
2022/12/14 02:19:56;;;;;;;27.20;16.70;;;8.40;91.30;;;;;;5094634;28;20083;-60
2022/12/14 02:22:32;;;;;;;25.73;15.73;;;8.40;90.10;;;;;;5061064;28;20057;-60
2022/12/14 02:25:19;;;;;;;28.20;16.95;;;8.20;91.20;;;;;;5037435;28;20402;-59
2022/12/14 02:28:10;;;;;;;27.88;16.38;;;8.30;89.10;;;;;;5054848;28;20048;-58
2022/12/14 02:30:39;;;;;;;28.00;16.45;;;8.30;90.00;;;;;;5087064;28;20059;-64
2022/12/14 02:33:50;;;;;;;28.08;15.73;;;8.30;89.00;;;;;;5057445;28;20039;-62
2022/12/14 02:36:34;;;;;;;31.73;17.17;;;8.10;91.20;;;;;;5075841;28;20056;-64
2022/12/14 02:39:22;;;;;;;26.13;15.70;;;8.20;88.90;;;;;;5087284;28;20077;-61
2022/12/14 02:42:13;;;;;;;31.48;16.52;;;8.10;88.80;;;;;;5020368;28;20088;-63
2022/12/14 02:44:46;;;;;;;24.52;15.30;;;8.20;89.90;;;;;;5075321;28;20080;-64
2022/12/14 02:47:25;;;;;;;29.23;16.33;;;8.10;90.10;;;;;;5064285;28;20047;-59
2022/12/14 02:50:09;;;;;;;27.08;15.68;;;8.20;89.00;;;;;;5094765;28;20400;-61
2022/12/14 02:53:12;;;;;;;28.83;15.80;;;8.30;89.00;;;;;;5088029;28;20094;-58
2022/12/14 02:55:46;;;;;;;26.52;15.68;;;8.10;89.80;;;;;;5047662;28;20540;-58
2022/12/14 02:58:18;;;;;;;28.05;16.80;;;8.40;91.30;;;;;;5065419;28;20048;-60
2022/12/14 03:00:44;;;;;;;27.05;15.70;;;7.90;91.10;;;;;;5091859;28;20040;-61
2022/12/14 03:03:09;;;;;;;25.70;15.85;;;8.40;91.20;;;;;;5056712;28;20043;-60
2022/12/14 03:05:36;;;;;;;26.70;16.25;;;;;;;;;;5094614;28;20104;-60
2022/12/14 03:08:22;;;;;;;29.38;16.55;;;8.40;90.10;;;;;;5093221;28;20390;-62
2022/12/14 03:10:59;;;;;;;26.70;15.93;;;8.20;91.20;;;;;;5076149;28;20051;-59
2022/12/14 03:13:34;;;;;;;24.42;15.00;;;8.20;91.20;;;;;;5066406;28;20118;-59
2022/12/14 03:16:27;;;;;;;24.70;15.05;;;8.50;90.10;;;;;;5079399;28;20037;-58
2022/12/14 03:18:56;;;;;;;24.77;15.30;;;8.10;91.10;;;;;;5029776;28;20150;-60
2022/12/14 03:21:27;;;;;;;28.55;16.33;;;8.10;89.80;;;;;;5054164;28;20048;-58
2022/12/14 03:23:53;;;;;;;28.13;15.77;;;;;;;;;;5062791;28;20120;-60
2022/12/14 03:26:32;;;;;;;27.35;15.55;;;7.80;91.10;;;;;;5073692;28;20094;-61
2022/12/14 03:29:09;;;;;;;28.48;16.15;;;8.20;91.20;;;;;;5056163;28;20048;-58
2022/12/14 03:31:46;;;;;;;26.27;15.32;;;8.10;88.80;;;;;;5038937;28;20116;-57
2022/12/14 03:34:13;;;;;;;26.92;16.60;;;8.30;89.80;;;;;;5070571;28;20100;-58
2022/12/14 03:36:47;;;;;;;25.90;15.50;;;8.30;91.20;;;;;;5059540;28;20117;-58
2022/12/14 03:39:16;;;;;;;26.45;16.75;;;8.30;91.30;;;;;;5075923;28;20043;-57
2022/12/14 03:42:00;;;;;;;27.67;15.75;;;8.00;88.80;;;;;;5076925;28;20079;-58
2022/12/14 03:44:40;;;;;;;26.73;14.55;;;8.00;88.20;;;;;;5072560;28;20075;-59
2022/12/14 03:47:27;;;;;;;25.73;14.90;;;8.20;88.90;;;;;;5066982;28;20055;-57
2022/12/14 03:50:00;;;;;;;25.63;14.30;;;8.10;89.70;;;;;;5053570;28;20417;-60
2022/12/14 03:52:34;;;;;;;25.55;15.27;;;8.20;90.00;;;;;;5012543;28;20136;-58
2022/12/14 03:55:00;;;;;;;28.05;15.50;;;;;;;;;;5030544;28;20174;-59
2022/12/14 03:57:47;;;;;;;25.38;15.02;;;8.10;88.60;;;;;;5053560;28;20076;-58
2022/12/14 04:00:16;;;;;;;26.67;15.60;;;8.00;89.60;;;;;;5053534;28;20509;-60
2022/12/14 04:02:47;;;;;;;26.90;15.57;;;8.30;89.70;;;;;;5053370;28;20037;-59
2022/12/14 04:05:31;;;;;;;26.73;15.60;;;;;;;;;;5038863;28;20166;-58
2022/12/14 04:07:57;;;;;;;24.52;15.20;;;;;;;;;;5052433;28;20124;-57
2022/12/14 04:18:56;;;;;;;25.48;16.33;;;;;;;;;;5050038;28;20053;-60
2022/12/14 04:21:39;;;;;;;25.90;15.57;;;8.10;88.80;;;;;;5038948;28;20054;-57
2022/12/14 04:27:01;;;;;;;28.10;15.07;;;7.90;91.20;;;;;;5038840;28;20517;-59
2022/12/14 04:32:20;;;;;;;25.65;15.40;;;7.80;89.70;;;;;;5037856;28;20049;-57
2022/12/14 04:34:49;;;;;;;25.02;15.32;;;8.10;89.90;;;;;;5036263;28;20104;-60
2022/12/14 04:37:16;;;;;;;26.10;15.85;;;7.90;89.20;;;;;;5048849;28;20041;-60
2022/12/14 04:39:42;;;;;;;27.00;16.15;;;;;;;;;;4999551;28;20522;-58
2022/12/14 04:42:09;;;;;;;27.40;15.38;;;;;;;;;;5013482;28;20057;-58
2022/12/14 04:44:39;;;;;;;29.73;16.45;;;8.00;89.80;;;;;;4998555;28;20049;-59
2022/12/14 04:47:06;;;;;;;28.33;16.08;;;7.90;89.80;;;;;;5016622;28;20403;-58
2022/12/14 04:49:39;;;;;;;24.35;15.65;;;7.70;89.70;;;;;;5016267;28;20096;-58
2022/12/14 04:52:14;;;;;;;26.33;15.53;;;7.90;90.10;;;;;;5032762;28;20066;-59
2022/12/14 04:54:49;;;;;;;28.63;14.85;;;7.90;91.10;;;;;;5037216;28;20272;-58
2022/12/14 04:57:23;;;;;;;27.30;15.55;;;7.70;88.60;;;;;;5035944;28;20041;-58
2022/12/14 04:59:49;;;;;;;26.35;15.98;;;;;;;;;;5035364;28;20042;-59
2022/12/14 05:02:23;;;;;;;27.83;15.98;;;7.70;89.90;;;;;;5036490;28;20049;-62
2022/12/14 05:04:55;;;;;;;25.42;14.35;;;8.00;91.20;;;;;;5035619;28;20108;-58
2022/12/14 05:07:24;;;;;;;25.80;15.77;;;7.90;91.10;;;;;;5041922;28;20125;-59
2022/12/14 05:10:10;;;;;;;29.60;16.15;;;7.90;90.10;;;;;;5074849;28;20044;-58
2022/12/14 05:12:36;;;;;;;31.10;17.17;;;;;;;;;;5057843;28;20076;-59
2022/12/14 05:15:13;;;;;;;28.55;17.05;;;7.80;88.40;;;;;;5036667;28;20077;-57
2022/12/14 05:17:39;;;;;;;30.15;16.45;;;;;;;;;;5038539;28;20394;-59
2022/12/14 05:20:06;;;;;;;31.65;16.40;;;;;;;;;;5076053;28;20139;-57
2022/12/14 05:22:32;;;;;;;25.48;15.43;;;;;;;;;;5076139;28;20098;-59
2022/12/14 05:24:58;;;;;;;28.02;16.77;;;7.40;90.80;;;;;;5076348;28;20068;-57
2022/12/14 05:27:24;;;;;;;29.60;16.38;;;;;;;;;;5076345;28;20041;-58
2022/12/14 05:29:50;;;;;;;26.48;16.70;;;;;;;;;;5064356;28;20044;-58
2022/12/14 05:32:16;;;;;;;26.02;15.50;;;;;;;;;;5076138;28;20048;-57
2022/12/14 05:34:42;;;;;;;28.13;16.67;;;7.80;90.80;;;;;;5076227;28;20045;-59
2022/12/14 05:37:08;;;;;;;26.85;15.65;;;;;;;;;;5076081;28;20039;-59
2022/12/14 05:39:34;;;;;;;28.60;15.45;;;7.60;90.80;;;;;;5073481;28;20048;-59
2022/12/14 05:42:00;;;;;;;27.27;15.70;;;;;;;;;;5075762;28;20490;-58
2022/12/14 05:44:26;;;;;;;27.60;16.52;;;7.80;90.80;;;;;;5076035;28;20115;-58
2022/12/14 05:46:53;;;;;;;27.17;16.27;;;;;;;;;;5053509;28;20494;-59
2022/12/14 05:49:19;;;;;;;31.70;17.35;;;;;;;;;;5044317;28;20482;-58
2022/12/14 05:51:44;;;;;;;26.05;15.30;;;7.80;90.80;;;;;;5090867;28;20123;-59
2022/12/14 05:54:10;;;;;;;26.45;16.55;;;7.70;90.70;;;;;;5089100;28;20533;-58
2022/12/14 05:56:36;;;;;;;29.55;16.25;;;;;;;;;;5074696;28;20051;-57
2022/12/14 05:59:03;;;;;;;27.75;15.60;;;;;;;;;;5075697;28;20170;-57
2022/12/14 06:01:29;;;;;;;25.92;15.73;;;;;;;;;;5093022;28;20051;-59
2022/12/14 06:03:55;;;;;;;26.60;15.13;;;;;;;;;;5073092;28;20045;-58
2022/12/14 06:06:21;;;;;;;25.95;15.18;;;;;;;;;;5082208;28;20051;-60
2022/12/14 06:08:47;;;;;;;25.73;14.82;;;;;;;;;;5090781;28;20044;-59
2022/12/14 06:11:15;;;;;;;26.02;15.32;;;7.40;88.70;;;;;;5055502;28;20067;-58
2022/12/14 06:13:41;;;;;;;28.48;16.38;;;7.70;90.80;;;;;;5055086;28;20045;-58
2022/12/14 06:16:07;;;;;;;27.27;15.25;;;;;;;;;;5055045;28;20049;-58
2022/12/14 06:18:33;;;;;;;29.88;16.35;;;;;;;;;;5055279;28;20037;-58
2022/12/14 06:21:00;;;;;;;27.13;15.82;;;;;;;;;;5060235;28;20045;-60
2022/12/14 06:23:26;;;;;;;27.30;15.45;;;;;;;;;;5055306;28;20055;-58
2022/12/14 06:25:53;;;;;;;30.70;16.60;;;7.50;88.60;;;;;;5055144;28;20095;-60
2022/12/14 06:28:19;;;;;;;27.73;16.08;;;;;;;;;;5055445;28;20110;-61
2022/12/14 06:30:46;;;;;;;26.42;14.88;;;;;;;;;;5072846;28;20108;-60
2022/12/14 06:33:12;;;;;;;25.15;14.95;;;;;;;;;;5095436;28;20044;-60
2022/12/14 06:35:43;;;;;;;25.98;15.00;;;7.70;88.70;;;;;;5095295;28;20040;-58
2022/12/14 06:38:09;;;;;;;27.73;15.65;;;;;;;;;;5067868;28;20045;-62
2022/12/14 06:40:35;;;;;;;27.65;15.30;;;;;;;;;;5062681;28;20126;-59
2022/12/14 06:43:02;;;;;;;24.55;14.75;;;;;;;;;;5095069;28;20072;-59
2022/12/14 06:45:28;;;;;;;23.40;13.90;;;7.40;90.60;;;;;;5095342;28;20051;-59
2022/12/14 06:47:54;;;;;;;28.58;14.93;;;7.60;90.80;;;;;;5095053;28;20047;-59
2022/12/14 06:50:20;;;;;;;26.15;15.50;;;;;;;;;;5094746;28;20484;-59
2022/12/14 06:52:49;;;;;;;25.02;14.73;;;7.50;90.60;;;;;;5074365;28;20056;-58
2022/12/14 06:55:16;;;;;;;24.85;13.95;;;;;;;;;;5066159;28;20457;-58
2022/12/14 06:57:42;;;;;;;25.25;14.38;;;;;;;;;;5077375;28;20048;-58
2022/12/14 07:00:11;;;;;;;27.05;15.52;;;7.50;90.50;;;;;;5094405;28;20054;-61
2022/12/14 07:02:37;;;;;;;27.92;14.70;;;7.50;90.50;;;;;;5093300;28;20036;-58
2022/12/14 07:05:04;;;;;;;25.90;14.48;;;7.70;90.50;;;;;;5094683;28;20137;-58
2022/12/14 07:07:33;;;;;;;27.63;14.25;;;7.20;90.40;;;;;;5091805;28;20043;-60
2022/12/14 07:10:00;;;;;;;27.92;14.77;;;;;;;;;;5094532;28;20371;-59
2022/12/14 07:12:29;;;;;;;24.35;14.15;;;;;;;;;;5045082;28;20048;-59
2022/12/14 07:14:55;;;;;;;25.65;13.98;;;;;;;;;;5054309;28;20218;-66
2022/12/14 07:17:21;;;;;;;24.25;14.07;;;;;;;;;;5058666;28;20069;-66
2022/12/14 07:19:47;;;;;;;28.75;15.45;;;;;;;;;;5093965;28;20044;-66
2022/12/14 07:22:13;;;;;;;26.85;13.63;;;7.20;90.40;;;;;;5094050;28;20051;-66
2022/12/14 07:24:39;;;;;;;23.85;13.48;;;7.40;90.50;;;;;;5093208;28;20035;-60
2022/12/14 07:27:05;;;;;;;23.65;13.88;;;7.50;90.50;;;;;;5094281;28;20394;-59
2022/12/14 07:29:31;;;;;;;24.23;13.57;;;7.60;90.50;;;;;;5086634;28;20040;-60
2022/12/14 07:31:56;;;;;;;24.17;14.20;;;7.60;90.60;;;;;;5094145;28;20169;-58
2022/12/14 07:34:22;;;;;;;20.90;12.98;;;7.70;90.70;;;;;;5092803;28;20082;-57
2022/12/14 07:36:49;;;;;;;24.80;14.35;;;;;;;;;;5088781;28;20036;-58
2022/12/14 07:39:16;;;;;;;25.65;13.93;;;7.90;90.60;;;;;;5092074;28;20424;-57
2022/12/14 07:41:43;;;;;;;24.15;13.65;;;;;;;;;;5094385;28;20485;-57
2022/12/14 07:44:09;;;;;;;25.08;14.32;;;7.70;90.50;;;;;;5093976;28;20050;-60
2022/12/14 07:46:35;;;;;;;23.98;14.15;;;;;;;;;;5059659;28;20430;-58
2022/12/14 07:49:01;;;;;;;23.20;13.18;;;;;;;;;;5089064;28;20042;-57
2022/12/14 07:51:32;;;;;;;25.77;14.38;;;7.70;90.50;;;;;;5093535;28;20052;-61
2022/12/14 07:54:00;;;;;;;25.00;14.00;;;;;;;;;;5093907;28;20051;-58
2022/12/14 07:56:28;;;;;;;21.98;13.52;;;7.50;88.20;;;;;;5092330;28;20044;-58
2022/12/14 07:58:55;;;;;;;27.25;14.88;;;7.50;87.70;;;;;;5088258;28;20136;-60
2022/12/14 08:01:25;;;;;;;28.70;14.60;;;7.70;88.30;;;;;;5093732;28;20044;-61
2022/12/14 08:03:52;;;;;;;23.48;13.80;;;7.60;88.30;;;;;;5055531;28;20051;-59
2022/12/14 08:06:19;;;;;;;23.67;13.38;;;;;;;;;;5053142;28;20182;-60
2022/12/14 08:08:45;;;;;;;22.15;13.15;;;;;;;;;;5086478;28;20047;-57
2022/12/14 08:11:11;;;;;;;22.42;13.23;;;;;;;;;;5093337;28;20498;-59
2022/12/14 08:13:37;;;;;;;25.58;13.20;;;;;;;;;;5093267;28;20043;-62
2022/12/14 08:16:30;;;;;;;25.20;13.45;;;7.90;89.00;;;;;;5093373;28;20055;-58
2022/12/14 08:18:56;;;;;;;24.02;12.80;;;;;;;;;;5081158;28;20067;-58
2022/12/14 08:21:22;;;;;;;20.90;12.43;;;7.50;90.40;;;;;;5057246;28;20052;-60
2022/12/14 08:23:49;;;;;;;23.58;12.77;;;;;;;;;;5057474;28;20041;-60
2022/12/14 08:26:15;;;;;;;21.40;13.18;;;;;;;;;;5057498;28;20045;-60
2022/12/14 08:28:41;;;;;;;25.83;13.45;;;;;;;;;;5092826;28;20040;-57
2022/12/14 08:31:08;;;;;;;23.52;13.32;;;7.80;90.50;;;;;;5095514;28;20470;-62
2022/12/14 08:33:35;;;;;;;26.83;14.18;;;7.80;90.50;;;;;;5079479;28;20442;-63
2022/12/14 08:36:09;;;;;;;29.13;13.40;;;7.80;87.30;;;;;;5088867;28;20045;-60
2022/12/14 08:38:35;;;;;;;27.00;13.93;;;;;;;;;;5056585;28;20049;-58
2022/12/14 08:41:05;;;;;;;25.73;12.98;;;7.80;90.40;;;;;;5093725;28;20099;-62
2022/12/14 08:43:31;;;;;;;25.85;13.88;;;;;;;;;;5097468;28;20378;-60
2022/12/14 08:45:58;;;;;;;22.48;12.95;;;;;;;;;;5097307;28;20044;-59
2022/12/14 08:48:24;;;;;;;23.60;13.40;;;;;;;;;;5097067;28;20074;-59
2022/12/14 08:50:50;;;;;;;22.65;12.88;;;;;;;;;;5078736;28;20489;-57
2022/12/14 08:53:16;;;;;;;27.30;13.50;;;8.00;90.60;;;;;;5082428;28;20102;-58
2022/12/14 08:55:42;;;;;;;25.50;13.65;;;8.00;90.50;;;;;;5058640;28;20041;-58
2022/12/14 08:58:08;;;;;;;24.55;13.07;;;7.90;90.50;;;;;;5076769;28;20048;-57
2022/12/14 09:00:33;;;;;;;23.50;12.75;;;7.90;90.40;;;;;;5076449;28;20055;-57
2022/12/14 09:03:00;;;;;;;24.90;13.15;;;;;;;;;;5087889;28;20073;-57
2022/12/14 09:05:26;;;;;;;27.25;13.35;;;8.10;90.50;;;;;;5095500;28;20127;-59
2022/12/14 09:07:52;;;;;;;24.25;12.93;;;;;;;;;;5096884;28;20503;-60
2022/12/14 09:10:18;;;;;;;24.38;13.68;;;;;;;;;;5084203;28;20051;-58
2022/12/14 09:12:44;;;;;;;24.17;13.65;;;;;;;;;;5073893;28;20154;-61
2022/12/14 09:15:10;;;;;;;24.42;13.00;;;8.00;90.30;;;;;;5089231;28;20454;-59
2022/12/14 09:17:36;;;;;;;23.92;12.70;;;;;;;;;;5056530;28;20119;-60
2022/12/14 09:20:03;;;;;;;26.27;14.25;;;8.00;90.30;;;;;;5056462;28;20080;-59
2022/12/14 09:22:29;;;;;;;26.23;14.07;;;;;;;;;;5062085;28;20040;-60
2022/12/14 09:24:55;;;;;;;24.73;13.32;;;;;;;;;;5096698;28;20122;-60
2022/12/14 09:27:21;;;;;;;21.98;12.63;;;8.00;90.40;;;;;;5087288;28;20045;-60
2022/12/14 09:29:48;;;;;;;28.00;13.70;;;7.90;90.30;;;;;;5089688;28;20067;-66
2022/12/14 09:32:13;;;;;;;25.35;13.90;;;8.10;90.40;;;;;;5031909;28;20037;-68
2022/12/14 09:34:40;;;;;;;25.90;13.90;;;;;;;;;;5091046;28;20101;-62
2022/12/14 09:37:06;;;;;;;26.75;14.70;;;8.20;90.40;;;;;;5096658;28;20083;-59
2022/12/14 09:39:32;;;;;;;23.85;13.57;;;;;;;;;;5094266;28;20047;-63
2022/12/14 09:41:58;;;;;;;25.80;14.52;;;;;;;;;;5096285;28;20131;-60
2022/12/14 09:44:24;;;;;;;25.23;14.10;;;;;;;;;;5079221;28;20044;-67
2022/12/14 09:46:53;;;;;;;25.73;13.52;;;;;;;;;;5062800;28;20177;-68
2022/12/14 09:49:53;;;;;;;28.70;14.32;;;8.10;86.90;;;;;;5095344;28;20052;-68
2022/12/14 09:52:47;;;;;;;24.75;13.10;;;7.90;87.80;;;;;;5095619;28;20450;-62
2022/12/14 09:55:55;;;;;;;22.25;12.32;;;7.90;86.40;;;;;;5092914;28;20079;-67
2022/12/14 09:58:24;;;;;;;22.90;13.23;;;8.10;88.20;;;;;;4956567;28;20498;-68
2022/12/14 10:01:04;;;;;;;24.90;13.02;;;8.10;87.70;;;;;;4937050;28;20059;-68
2022/12/14 10:03:57;;;;;;;24.38;12.90;;;8.20;90.40;;;;;;4960045;28;20047;-59
2022/12/14 10:06:35;;;;;;;23.00;13.13;;;8.20;90.50;;;;;;4948968;28;20519;-62
2022/12/14 10:09:32;;;;;;;23.67;12.85;;;8.20;87.30;;;;;;4969650;28;20427;-69
2022/12/14 10:12:17;;;;;;;23.42;12.23;;;;;;;;;;4968132;28;20055;-68
2022/12/14 10:15:11;;;;;;;22.50;13.13;;;8.40;88.60;;;;;;4954589;29;20086;-69
2022/12/14 10:18:04;;;;;;;24.77;11.80;;;8.40;86.40;;;;;;4959322;28;20122;-64
2022/12/14 10:20:42;;;;;;;20.77;11.63;;;8.80;88.20;;;;;;4959837;28;20047;-62
2022/12/14 10:23:11;;;;;;;26.52;12.85;;;8.60;90.30;;;;;;4973935;28;20039;-60
2022/12/14 10:25:38;;;;;;;23.00;12.82;;;8.50;90.30;;;;;;4971853;28;20043;-68
2022/12/14 10:28:10;;;;;;;21.80;12.20;;;;;;;;;;4967172;28;20063;-68
2022/12/14 10:30:36;;;;;;;21.83;11.82;;;;;;;;;;4954507;29;20074;-69
2022/12/14 10:33:05;;;;;;;20.80;11.90;;;;;;;;;;4966336;28;20426;-68
2022/12/14 10:35:34;;;;;;;21.40;12.43;;;;;;;;;;5055241;28;20091;-68
2022/12/14 10:38:38;;;;;;;22.52;12.05;;;9.00;90.50;;;;;;5074246;28;20048;-68
2022/12/14 10:41:30;;;;;;;20.40;11.13;;;9.10;90.40;;;;;;4971509;28;20051;-68
2022/12/14 10:44:16;;;;;;;21.63;12.35;;;9.20;90.40;;;;;;4971304;28;20054;-67
2022/12/14 10:46:50;;;;;;;21.08;11.32;;;9.00;88.40;;;;;;4964073;28;20059;-68
2022/12/14 10:49:31;;;;;;;22.10;11.80;;;9.20;88.20;;;;;;4976861;28;20047;-68
2022/12/14 10:52:00;;;;;;;21.10;11.88;;;9.60;88.50;;;;;;4957270;28;20202;-68
2022/12/14 10:54:36;;;;;;;20.90;11.40;;;9.60;87.10;;;;;;4975914;28;20054;-68
2022/12/14 10:57:02;;;;;;;19.80;11.57;;;;;;;;;;4963253;28;20053;-68
2022/12/14 10:59:37;;;;;;;22.10;12.27;;;9.60;88.70;;;;;;4965476;28;20056;-68
2022/12/14 11:02:04;;;;;;;19.98;11.40;;;9.30;88.10;;;;;;4983308;28;20042;-66
2022/12/14 11:04:49;;;;;;;20.23;12.20;;;9.60;90.50;;;;;;4969108;28;20058;-64
2022/12/14 11:07:15;;;;;;;22.08;12.85;;;;;;;;;;4981643;28;20050;-67
2022/12/14 11:09:42;;;;;;;19.02;11.73;;;;;;;;;;4973239;28;20126;-68
2022/12/14 11:12:16;;;;;;;18.08;11.30;;;9.80;88.70;;;;;;4985370;28;20078;-60
2022/12/14 11:14:53;;;;;;;18.88;11.30;;;9.90;90.50;;;;;;4944716;28;20043;-68
2022/12/14 11:17:31;;;;;;;19.38;11.65;;;9.90;87.30;;;;;;4992094;28;20048;-69
2022/12/14 11:20:07;;;;;;;19.45;11.23;;;9.90;90.50;;;;;;5033688;28;20049;-68
2022/12/14 11:22:48;;;;;;;18.67;10.68;;;10.30;87.80;;;;;;5036424;28;20132;-67
2022/12/14 11:25:49;;;;;;;19.58;11.07;;;10.20;89.10;;;;;;5067996;28;20044;-68
2022/12/14 11:28:21;;;;;;;20.60;11.85;;;10.20;89.10;;;;;;4953980;29;20055;-61
2022/12/14 11:31:14;;;;;;;19.23;11.13;;;10.60;90.60;;;;;;4953328;29;20047;-61
2022/12/14 11:33:46;;;;;;;21.02;10.68;;;10.40;90.50;;;;;;4950171;28;20062;-60
2022/12/14 11:36:35;;;;;;;20.80;11.07;;;10.40;90.50;;;;;;4971412;28;20111;-61
2022/12/14 11:39:12;;;;;;;20.73;11.65;;;10.20;90.40;;;;;;4972855;28;20102;-61
2022/12/14 11:41:40;;;;;;;19.40;10.75;;;;;;;;;;4972581;28;20049;-60
2022/12/14 11:44:15;;;;;;;20.02;11.05;;;10.70;87.10;;;;;;4956089;28;20149;-68
2022/12/14 11:46:42;;;;;;;19.75;11.70;;;;;;;;;;4956201;28;20061;-69
2022/12/14 11:49:27;;;;;;;18.02;11.02;;;10.60;86.80;;;;;;4947584;28;20058;-67
2022/12/14 11:52:03;;;;;;;19.52;11.45;;;10.70;87.90;;;;;;4962660;28;20047;-69
2022/12/14 11:54:29;;;;;;;18.90;11.10;;;10.70;90.20;;;;;;4970289;28;20074;-68
2022/12/14 11:56:58;;;;;;;19.55;10.93;;;11.10;90.40;;;;;;4953517;29;20065;-62
2022/12/14 11:59:24;;;;;;;17.63;10.95;;;;;;;;;;4951551;29;20195;-70
2022/12/14 12:01:50;;;;;;;20.17;10.90;;;;;;;;;;4958204;28;20064;-64
2022/12/14 12:04:16;;;;;;;20.08;11.38;;;10.70;90.30;;;;;;5054185;28;20390;-68
2022/12/14 12:06:42;;;;;;;19.40;11.30;;;10.90;90.30;;;;;;5037257;28;20036;-70
2022/12/14 12:09:41;;;;;;;20.25;12.02;;;10.90;88.10;;;;;;5054209;28;20036;-69
2022/12/14 12:12:18;;;;;;;20.38;11.57;;;10.70;88.00;;;;;;5028290;28;20509;-66
2022/12/14 12:14:45;;;;;;;18.83;11.02;;;10.50;90.10;;;;;;5004978;28;20044;-67
2022/12/14 12:17:39;;;;;;;18.45;11.10;;;10.80;86.80;;;;;;5038123;28;20045;-68
2022/12/14 12:20:32;;;;;;;17.73;11.38;;;10.90;90.30;;;;;;5020581;28;20048;-70
2022/12/14 12:23:14;;;;;;;19.30;11.48;;;10.80;88.40;;;;;;5038018;28;20049;-69
2022/12/14 12:25:40;;;;;;;20.70;11.75;;;11.00;90.50;;;;;;5048176;28;20045;-70
2022/12/14 12:28:15;;;;;;;20.98;12.45;;;;;;;;;;5050063;28;20461;-71
2022/12/14 12:30:42;;;;;;;19.42;11.35;;;10.90;90.50;;;;;;5055107;28;20532;-70
2022/12/14 12:33:20;;;;;;;19.00;11.80;;;10.40;90.40;;;;;;5038642;28;20076;-68
2022/12/14 12:35:49;;;;;;;18.42;11.13;;;;;;;;;;5018383;28;20121;-68
2022/12/14 12:38:21;;;;;;;18.75;11.43;;;10.60;87.10;;;;;;5015148;28;20045;-66
2022/12/14 12:40:58;;;;;;;21.17;11.68;;;10.60;90.40;;;;;;5052772;28;20128;-69
2022/12/14 12:43:39;;;;;;;18.98;12.13;;;10.60;87.50;;;;;;5019504;28;20041;-69
2022/12/14 12:46:16;;;;;;;22.05;12.25;;;10.80;90.50;;;;;;5019381;28;20080;-69
2022/12/14 12:48:42;;;;;;;17.80;11.13;;;;;;;;;;5034507;28;20116;-67
2022/12/14 12:51:19;;;;;;;19.35;11.73;;;10.50;87.20;;;;;;5061809;28;20049;-63
2022/12/14 12:53:51;;;;;;;18.13;10.70;;;10.50;90.40;;;;;;5016297;28;20459;-68
2022/12/14 12:56:44;;;;;;;19.90;11.63;;;10.30;89.00;;;;;;5031735;28;20108;-68
2022/12/14 12:59:14;;;;;;;20.30;12.27;;;;;;;;;;5045535;28;20121;-69
2022/12/14 13:01:42;;;;;;;19.50;11.32;;;10.50;88.50;;;;;;5015725;28;20048;-68
2022/12/14 13:04:14;;;;;;;19.42;11.65;;;10.40;90.50;;;;;;5015341;28;20124;-68
2022/12/14 13:06:50;;;;;;;22.55;12.32;;;10.50;87.30;;;;;;5019308;28;20451;-68
2022/12/14 13:09:31;;;;;;;21.42;11.30;;;10.20;90.50;;;;;;5033022;28;20080;-69
2022/12/14 13:11:57;;;;;;;21.77;11.60;;;10.40;90.50;;;;;;5041967;28;20053;-69
2022/12/14 13:14:37;;;;;;;25.60;12.95;;;10.50;90.50;;;;;;5038545;28;20040;-69
2022/12/14 13:17:04;;;;;;;22.42;11.65;;;10.30;90.50;;;;;;5038898;28;20130;-69
2022/12/14 13:19:36;;;;;;;19.33;11.38;;;;;;;;;;5039270;28;20114;-68
2022/12/14 13:22:02;;;;;;;19.45;11.88;;;;;;;;;;5038559;28;20045;-71
2022/12/14 13:24:27;;;;;;;19.20;11.70;;;10.20;90.50;;;;;;5056384;28;20066;-69
2022/12/14 13:27:03;;;;;;;21.60;11.93;;;10.00;88.60;;;;;;5019493;28;20064;-69
2022/12/14 13:30:08;;;;;;;21.40;11.52;;;10.50;89.00;;;;;;5018766;28;20125;-66
2022/12/14 13:32:57;;;;;;;21.70;11.73;;;10.10;90.50;;;;;;5036096;28;20148;-69
2022/12/14 13:35:58;;;;;;;24.92;11.90;;;9.90;88.60;;;;;;5035973;28;20052;-70
2022/12/14 13:38:33;;;;;;;19.38;12.50;;;;;;;;;;5014380;28;20119;-70
2022/12/14 13:41:08;;;;;;;22.55;11.40;;;9.90;90.60;;;;;;5036130;28;20045;-69
2022/12/14 13:43:52;;;;;;;22.00;12.50;;;10.10;87.60;;;;;;5036721;28;20387;-70